createdAt,value
2022-11-05T00:01:00.542Z,8.20
2022-11-05T00:03:46.093Z,7.80
2022-11-05T00:06:31.403Z,7.80
2022-11-05T00:09:16.866Z,8.00
2022-11-05T00:12:02.585Z,7.90
2022-11-05T00:14:48.139Z,7.90
2022-11-05T00:17:18.572Z,7.90
2022-11-05T00:19:45.310Z,8.10
2022-11-05T00:22:30.595Z,7.90
2022-11-05T00:25:16.612Z,8.00
2022-11-05T00:27:44.416Z,7.90
2022-11-05T00:30:12.294Z,8.00
2022-11-05T00:32:39.240Z,8.10
2022-11-05T00:35:07.782Z,7.90
2022-11-05T00:37:34.521Z,7.70
2022-11-05T00:40:01.208Z,7.80
2022-11-05T00:42:46.522Z,8.00
2022-11-05T00:45:13.789Z,8.00
2022-11-05T00:47:59.021Z,7.80
2022-11-05T00:50:25.861Z,7.90
2022-11-05T00:52:56.724Z,7.80
2022-11-05T00:55:34.681Z,7.70
2022-11-05T00:58:03.436Z,7.70
2022-11-05T01:00:32.064Z,7.90
2022-11-05T01:03:10.997Z,7.90
2022-11-05T01:05:46.939Z,7.70
2022-11-05T01:08:15.142Z,7.70
2022-11-05T01:10:43.429Z,7.60
2022-11-05T01:13:13.168Z,7.40
2022-11-05T01:15:41.266Z,7.50
2022-11-05T01:18:08.282Z,7.40
2022-11-05T01:20:34.985Z,7.30
2022-11-05T01:23:01.666Z,7.30
2022-11-05T01:25:28.462Z,7.30
2022-11-05T01:27:55.458Z,7.30
2022-11-05T01:30:22.181Z,7.60
2022-11-05T01:32:48.868Z,7.50
2022-11-05T01:35:17.301Z,7.40
2022-11-05T01:37:44.481Z,7.40
2022-11-05T01:40:15.024Z,7.50
2022-11-05T01:42:44.197Z,7.50
2022-11-05T01:45:27.839Z,7.40
2022-11-05T01:48:03.535Z,7.30
2022-11-05T01:50:32.695Z,7.30
2022-11-05T01:53:16.702Z,7.30
2022-11-05T01:55:54.478Z,7.20
2022-11-05T01:58:25.025Z,7.10
2022-11-05T02:00:51.657Z,7.20
2022-11-05T02:03:19.124Z,7.60
2022-11-05T02:05:47.829Z,7.50
2022-11-05T02:08:26.021Z,7.60
2022-11-05T02:10:53.101Z,7.60
2022-11-05T02:13:19.762Z,7.40
2022-11-05T02:16:19.615Z,7.60
2022-11-05T02:19:29.193Z,7.60
2022-11-05T02:22:33.471Z,7.70
2022-11-05T02:25:27.579Z,7.80
2022-11-05T02:28:03.480Z,8.30
2022-11-05T02:30:57.292Z,8.30
2022-11-05T02:33:26.837Z,8.20
2022-11-05T02:36:44.733Z,8.30
2022-11-05T02:39:27.818Z,8.20
2022-11-05T02:42:28.395Z,7.90
2022-11-05T02:45:14.718Z,7.30
2022-11-05T02:47:46.328Z,7.30
2022-11-05T02:50:45.454Z,7.20
2022-11-05T02:53:19.941Z,7.20
2022-11-05T02:56:18.216Z,7.10
2022-11-05T02:58:44.948Z,7.00
2022-11-05T03:01:12.514Z,7.10
2022-11-05T03:03:46.055Z,7.00
2022-11-05T03:06:31.615Z,7.10
2022-11-05T03:09:01.346Z,6.90
2022-11-05T03:11:32.563Z,7.00
2022-11-05T03:14:03.536Z,7.30
2022-11-05T03:16:40.547Z,7.90
2022-11-05T03:19:17.149Z,7.50
2022-11-05T03:21:56.327Z,7.30
2022-11-05T03:24:35.656Z,7.10
2022-11-05T03:27:15.618Z,7.10
2022-11-05T03:29:52.045Z,6.90
2022-11-05T03:32:20.992Z,6.90
2022-11-05T03:35:07.631Z,6.80
2022-11-05T03:37:38.614Z,7.10
2022-11-05T03:40:08.798Z,7.10
2022-11-05T03:42:38.858Z,7.30
2022-11-05T03:45:11.146Z,7.60
2022-11-05T03:47:40.898Z,8.20
2022-11-05T03:50:41.066Z,7.60
2022-11-05T03:53:14.051Z,7.90
2022-11-05T03:55:53.736Z,8.10
2022-11-05T03:58:22.439Z,7.90
2022-11-05T04:00:50.769Z,8.00
2022-11-05T04:03:17.576Z,7.90
2022-11-05T04:05:44.587Z,7.80
2022-11-05T04:08:29.882Z,7.60
2022-11-05T04:11:15.303Z,8.00
2022-11-05T04:13:41.984Z,7.90
2022-11-05T04:16:27.118Z,7.70
2022-11-05T04:18:53.756Z,7.50
2022-11-05T04:21:38.992Z,7.50
2022-11-05T04:24:08.599Z,7.60
2022-11-05T04:26:40.735Z,7.70
2022-11-05T04:29:26.642Z,8.10
2022-11-05T04:31:53.908Z,7.80
2022-11-05T04:34:22.194Z,8.10
2022-11-05T04:36:53.195Z,8.20
2022-11-05T04:39:20.988Z,8.40
2022-11-05T04:41:48.655Z,8.70
2022-11-05T04:44:16.647Z,8.40
2022-11-05T04:46:43.536Z,8.70
2022-11-05T04:49:10.179Z,8.20
2022-11-05T04:51:36.960Z,8.60
2022-11-05T04:54:03.760Z,8.30
2022-11-05T04:56:30.507Z,8.40
2022-11-05T04:58:57.300Z,8.40
2022-11-05T05:01:25.414Z,8.40
2022-11-05T05:03:53.997Z,8.10
2022-11-05T05:06:21.847Z,8.10
2022-11-05T05:08:50.899Z,8.10
2022-11-05T05:11:20.377Z,8.50
2022-11-05T05:13:47.617Z,8.40
2022-11-05T05:16:27.038Z,8.10
2022-11-05T05:18:54.505Z,8.00
2022-11-05T05:21:42.225Z,8.00
2022-11-05T05:24:16.674Z,8.30
2022-11-05T05:26:45.501Z,8.10
2022-11-05T05:29:12.756Z,7.70
2022-11-05T05:31:40.467Z,7.80
2022-11-05T05:34:10.497Z,7.80
2022-11-05T05:36:37.236Z,7.90
2022-11-05T05:39:08.094Z,8.10
2022-11-05T05:41:34.798Z,7.90
2022-11-05T05:44:01.498Z,7.60
2022-11-05T05:46:28.186Z,7.90
2022-11-05T05:48:54.976Z,7.80
2022-11-05T05:51:21.715Z,7.90
2022-11-05T05:53:48.433Z,8.20
2022-11-05T05:56:19.159Z,8.10
2022-11-05T05:58:45.911Z,8.40
2022-11-05T06:01:18.976Z,8.20
2022-11-05T06:03:47.454Z,8.40
2022-11-05T06:06:15.722Z,8.60
2022-11-05T06:08:42.770Z,8.90
2022-11-05T06:11:09.802Z,8.90
2022-11-05T06:13:37.277Z,8.60
2022-11-05T06:16:08.831Z,8.80
2022-11-05T06:18:36.421Z,8.80
2022-11-05T06:21:11.957Z,8.90
2022-11-05T06:23:40.471Z,8.50
2022-11-05T06:26:10.640Z,8.20
2022-11-05T06:28:37.330Z,8.00
2022-11-05T06:31:05.861Z,7.80
2022-11-05T06:33:32.520Z,7.80
2022-11-05T06:36:01.394Z,7.80
2022-11-05T06:38:29.435Z,7.90
2022-11-05T06:40:59.382Z,7.70
2022-11-05T06:43:26.939Z,7.50
2022-11-05T06:45:55.690Z,7.30
2022-11-05T06:48:25.434Z,7.50
2022-11-05T06:50:52.382Z,7.50
2022-11-05T06:53:19.430Z,7.50
2022-11-05T06:55:47.880Z,7.40
2022-11-05T06:58:15.444Z,7.60
2022-11-05T07:00:42.657Z,7.70
2022-11-05T07:03:11.539Z,7.70
2022-11-05T07:05:46.330Z,7.70
2022-11-05T07:08:16.500Z,7.70
2022-11-05T07:10:43.326Z,7.80
2022-11-05T07:13:10.666Z,7.70
2022-11-05T07:15:38.036Z,7.70
2022-11-05T07:18:07.505Z,8.20
2022-11-05T07:20:34.996Z,8.10
2022-11-05T07:23:11.710Z,8.30
2022-11-05T07:25:39.195Z,8.40
2022-11-05T07:28:06.141Z,8.60
2022-11-05T07:30:34.341Z,8.50
2022-11-05T07:33:01.196Z,8.40
2022-11-05T07:35:28.170Z,7.50
2022-11-05T07:37:55.463Z,9.40
2022-11-05T07:40:23.885Z,10.10
2022-11-05T07:43:01.622Z,10.40
2022-11-05T07:45:30.561Z,10.60
2022-11-05T07:48:02.431Z,10.30
2022-11-05T07:50:34.177Z,10.70
2022-11-05T07:53:05.905Z,10.50
2022-11-05T07:55:33.150Z,10.80
2022-11-05T07:57:59.981Z,11.30
2022-11-05T08:00:28.017Z,10.90
2022-11-05T08:03:12.270Z,11.20
2022-11-05T08:05:44.497Z,11.10
2022-11-05T08:08:13.160Z,11.20
2022-11-05T08:10:42.596Z,11.50
2022-11-05T08:13:10.177Z,11.60
2022-11-05T08:15:37.625Z,11.80
2022-11-05T08:18:07.881Z,11.80
2022-11-05T08:20:35.897Z,11.60
2022-11-05T08:23:02.562Z,11.40
2022-11-05T08:25:30.885Z,10.90
2022-11-05T08:28:03.729Z,11.20
2022-11-05T08:30:31.492Z,10.70
2022-11-05T08:33:03.805Z,10.50
2022-11-05T08:35:31.145Z,10.60
2022-11-05T08:38:03.202Z,10.80
2022-11-05T08:40:32.485Z,10.60
2022-11-05T08:43:00.580Z,10.50
2022-11-05T08:45:27.706Z,11.10
2022-11-05T08:48:05.363Z,11.10
2022-11-05T08:50:32.540Z,11.10
2022-11-05T08:52:59.817Z,11.10
2022-11-05T08:55:26.984Z,10.90
2022-11-05T08:58:01.660Z,10.80
2022-11-05T09:00:30.647Z,10.80
2022-11-05T09:03:02.173Z,10.70
2022-11-05T09:05:30.441Z,11.10
2022-11-05T09:08:00.970Z,10.70
2022-11-05T09:10:28.659Z,11.10
2022-11-05T09:12:55.872Z,12.30
2022-11-05T09:15:23.421Z,13.00
2022-11-05T09:17:50.569Z,13.50
2022-11-05T09:20:17.450Z,13.70
2022-11-05T09:22:45.080Z,13.30
2022-11-05T09:25:11.803Z,11.90
2022-11-05T09:27:38.600Z,12.60
2022-11-05T09:30:05.798Z,12.80
2022-11-05T09:32:33.751Z,12.10
2022-11-05T09:35:01.227Z,12.90
2022-11-05T09:37:28.835Z,13.60
2022-11-05T09:40:05.437Z,13.30
2022-11-05T09:42:41.212Z,13.30
2022-11-05T09:45:13.507Z,13.00
2022-11-05T09:47:44.524Z,12.00
2022-11-05T09:50:32.593Z,11.80
2022-11-05T09:52:59.793Z,11.70
2022-11-05T09:55:29.549Z,11.90
2022-11-05T09:58:03.438Z,11.70
2022-11-05T10:00:32.434Z,11.20
2022-11-05T10:03:07.087Z,11.80
2022-11-05T10:05:37.010Z,11.40
2022-11-05T10:08:10.043Z,12.20
2022-11-05T10:10:51.008Z,12.20
2022-11-05T10:13:39.692Z,12.00
2022-11-05T10:16:30.914Z,11.70
2022-11-05T10:19:24.622Z,11.50
2022-11-05T10:22:09.014Z,12.00
2022-11-05T10:24:36.935Z,11.60
2022-11-05T10:27:05.249Z,11.70
2022-11-05T10:29:34.561Z,12.20
2022-11-05T10:32:05.759Z,12.00
2022-11-05T10:34:36.838Z,12.00
2022-11-05T10:37:04.506Z,12.30
2022-11-05T10:39:33.128Z,12.00
2022-11-05T10:42:14.950Z,11.90
2022-11-05T10:44:47.483Z,12.50
2022-11-05T10:47:56.015Z,12.80
2022-11-05T10:50:28.116Z,12.80
2022-11-05T10:52:59.260Z,12.70
2022-11-05T10:55:34.309Z,12.40
2022-11-05T10:58:33.038Z,12.00
2022-11-05T11:01:01.548Z,13.00
2022-11-05T11:03:57.377Z,12.70
2022-11-05T11:06:31.406Z,12.90
2022-11-05T11:09:01.585Z,12.60
2022-11-05T11:11:42.614Z,12.40
2022-11-05T11:14:12.444Z,12.30
2022-11-05T11:16:43.807Z,12.10
2022-11-05T11:19:31.994Z,12.90
2022-11-05T11:22:06.018Z,13.00
2022-11-05T11:24:42.381Z,12.90
2022-11-05T11:27:13.792Z,13.90
2022-11-05T11:29:48.148Z,13.20
2022-11-05T11:32:31.960Z,13.30
2022-11-05T11:34:59.629Z,14.00
2022-11-05T11:37:30.594Z,13.60
2022-11-05T11:40:04.210Z,13.60
2022-11-05T11:42:39.877Z,13.00
2022-11-05T11:45:29.612Z,12.90
2022-11-05T11:47:57.870Z,13.50
2022-11-05T11:50:39.338Z,12.80
2022-11-05T11:53:18.221Z,12.60
2022-11-05T11:56:03.606Z,12.40
2022-11-05T11:58:51.136Z,13.70
2022-11-05T12:01:45.741Z,12.70
2022-11-05T12:04:30.921Z,12.50
2022-11-05T12:07:00.623Z,12.70
2022-11-05T12:09:58.189Z,12.90
2022-11-05T12:12:43.004Z,13.10
2022-11-05T12:15:27.618Z,13.70
2022-11-05T12:18:02.925Z,13.30
2022-11-05T12:21:34.802Z,13.20
2022-11-05T12:24:28.681Z,14.00
2022-11-05T12:27:37.279Z,13.20
2022-11-05T12:30:18.654Z,13.00
2022-11-05T12:33:00.221Z,13.60
2022-11-05T12:35:32.643Z,14.10
2022-11-05T12:38:17.310Z,13.70
2022-11-05T12:40:50.087Z,13.90
2022-11-05T12:43:31.219Z,13.40
2022-11-05T12:46:29.077Z,13.60
2022-11-05T12:49:07.788Z,14.30
2022-11-05T12:51:53.022Z,14.30
2022-11-05T12:54:42.900Z,14.20
2022-11-05T12:57:12.763Z,14.10
2022-11-05T12:59:58.172Z,13.60
2022-11-05T13:02:42.830Z,13.40
2022-11-05T13:05:38.959Z,14.20
2022-11-05T13:08:25.330Z,14.00
2022-11-05T13:11:05.112Z,13.70
2022-11-05T13:14:13.259Z,14.10
2022-11-05T13:16:50.691Z,13.10
2022-11-05T13:19:32.069Z,13.80
2022-11-05T13:22:12.972Z,13.40
2022-11-05T13:24:50.661Z,13.50
2022-11-05T13:28:12.651Z,13.10
2022-11-05T13:30:57.905Z,13.50
2022-11-05T13:33:43.725Z,13.60
2022-11-05T13:36:41.632Z,14.50
2022-11-05T13:39:17.217Z,13.70
2022-11-05T13:42:14.134Z,14.00
2022-11-05T13:45:30.065Z,13.70
2022-11-05T13:48:11.502Z,13.40
2022-11-05T13:50:50.335Z,14.00
2022-11-05T13:53:55.091Z,14.50
2022-11-05T13:56:50.673Z,13.80
2022-11-05T13:59:32.476Z,14.60
2022-11-05T14:02:02.757Z,14.00
2022-11-05T14:04:41.268Z,13.90
2022-11-05T14:07:22.290Z,13.80
2022-11-05T14:10:14.281Z,13.50
2022-11-05T14:12:41.756Z,14.60
2022-11-05T14:15:24.441Z,14.20
2022-11-05T14:18:06.120Z,13.20
2022-11-05T14:20:32.849Z,13.10
2022-11-05T14:23:20.676Z,13.30
2022-11-05T14:25:56.325Z,13.70
2022-11-05T14:28:49.835Z,13.10
2022-11-05T14:31:23.298Z,14.00
2022-11-05T14:34:09.690Z,14.20
2022-11-05T14:36:37.604Z,13.40
2022-11-05T14:39:28.039Z,13.00
2022-11-05T14:41:58.347Z,13.20
2022-11-05T14:44:26.450Z,13.40
2022-11-05T14:46:59.652Z,13.20
2022-11-05T14:49:31.327Z,12.80
2022-11-05T14:52:00.823Z,12.90
2022-11-05T14:54:36.914Z,12.90
2022-11-05T14:57:04.114Z,13.10
2022-11-05T14:59:35.212Z,12.60
2022-11-05T15:02:03.673Z,13.10
2022-11-05T15:04:33.324Z,13.20
2022-11-05T15:07:05.872Z,13.20
2022-11-05T15:10:08.908Z,12.90
2022-11-05T15:13:03.007Z,12.70
2022-11-05T15:15:40.212Z,12.60
2022-11-05T15:18:21.909Z,13.00
2022-11-05T15:20:51.454Z,13.50
2022-11-05T15:23:21.474Z,13.70
2022-11-05T15:25:59.863Z,13.50
2022-11-05T15:28:46.340Z,12.70
2022-11-05T15:31:13.080Z,12.60
2022-11-05T15:33:41.564Z,12.40
2022-11-05T15:36:23.610Z,12.50
2022-11-05T15:39:15.143Z,12.50
2022-11-05T15:41:38.196Z,12.70
2022-11-05T15:44:04.945Z,12.80
2022-11-05T15:46:31.744Z,12.80
2022-11-05T15:49:06.993Z,12.90
2022-11-05T15:51:35.544Z,12.80
2022-11-05T15:54:29.174Z,12.50
2022-11-05T15:56:56.484Z,12.60
2022-11-05T15:59:25.545Z,12.60
2022-11-05T16:02:04.146Z,12.40
2022-11-05T16:04:34.469Z,12.80
2022-11-05T16:07:08.903Z,13.30
2022-11-05T16:09:38.615Z,12.70
2022-11-05T16:12:44.013Z,12.90
2022-11-05T16:15:10.649Z,12.80
2022-11-05T16:17:48.616Z,12.50
2022-11-05T16:20:23.606Z,12.40
2022-11-05T16:22:53.383Z,12.50
2022-11-05T16:25:24.398Z,12.40
2022-11-05T16:27:51.129Z,12.00
2022-11-05T16:30:19.514Z,12.10
2022-11-05T16:32:47.297Z,11.90
2022-11-05T16:35:25.078Z,11.90
2022-11-05T16:37:52.799Z,12.10
2022-11-05T16:40:22.091Z,12.20
2022-11-05T16:42:51.415Z,11.90
2022-11-05T16:45:20.565Z,12.10
2022-11-05T16:47:47.872Z,12.20
2022-11-05T16:50:27.142Z,12.40
2022-11-05T16:52:53.933Z,12.20
2022-11-05T16:55:20.873Z,12.00
2022-11-05T16:57:52.998Z,12.10
2022-11-05T17:00:21.220Z,12.30
2022-11-05T17:02:48.372Z,12.00
2022-11-05T17:05:25.619Z,12.10
2022-11-05T17:07:52.706Z,11.90
2022-11-05T17:10:21.184Z,11.80
2022-11-05T17:12:48.797Z,12.70
2022-11-05T17:15:18.462Z,12.10
2022-11-05T17:17:45.926Z,12.20
2022-11-05T17:20:39.928Z,12.00
2022-11-05T17:23:12.983Z,13.30
2022-11-05T17:25:41.676Z,12.70
2022-11-05T17:28:09.514Z,12.60
2022-11-05T17:30:38.605Z,12.00
2022-11-05T17:33:07.097Z,11.80
2022-11-05T17:35:33.851Z,11.60
2022-11-05T17:38:00.616Z,12.20
2022-11-05T17:40:28.374Z,12.00
2022-11-05T17:42:55.148Z,12.40
2022-11-05T17:45:21.935Z,12.00
2022-11-05T17:47:48.746Z,12.70
2022-11-05T17:50:16.670Z,13.40
2022-11-05T17:52:44.235Z,12.40
2022-11-05T17:55:18.424Z,12.10
2022-11-05T17:57:49.977Z,12.50
2022-11-05T18:00:21.417Z,13.10
2022-11-05T18:02:49.629Z,12.70
2022-11-05T18:05:20.740Z,12.50
2022-11-05T18:07:48.299Z,12.50
2022-11-05T18:10:16.765Z,12.70
2022-11-05T18:12:44.204Z,12.70
2022-11-05T18:15:11.154Z,12.80
2022-11-05T18:17:38.195Z,12.30
2022-11-05T18:20:10.719Z,12.10
2022-11-05T18:22:39.871Z,11.90
2022-11-05T18:25:08.077Z,11.90
2022-11-05T18:27:35.562Z,11.80
2022-11-05T18:30:02.730Z,12.00
2022-11-05T18:32:29.500Z,12.30
2022-11-05T18:34:56.247Z,12.00
2022-11-05T18:37:22.971Z,12.50
2022-11-05T18:39:53.463Z,12.10
2022-11-05T18:42:21.668Z,12.20
2022-11-05T18:44:49.036Z,12.30
2022-11-05T18:47:19.516Z,12.40
2022-11-05T18:49:46.093Z,12.10
2022-11-05T18:52:13.211Z,12.00
2022-11-05T18:54:40.034Z,12.20
2022-11-05T18:57:07.305Z,12.40
2022-11-05T18:59:38.050Z,12.20
2022-11-05T19:02:06.151Z,12.60
2022-11-05T19:04:34.738Z,12.60
2022-11-05T19:07:04.734Z,12.30
2022-11-05T19:09:35.628Z,12.40
2022-11-05T19:12:03.522Z,12.30
2022-11-05T19:14:33.144Z,12.20
2022-11-05T19:17:00.768Z,12.30
2022-11-05T19:19:27.821Z,12.40
2022-11-05T19:21:54.590Z,13.00
2022-11-05T19:24:21.359Z,12.50
2022-11-05T19:26:48.627Z,12.80
2022-11-05T19:29:15.505Z,12.70
2022-11-05T19:31:44.120Z,12.80
2022-11-05T19:34:11.385Z,13.10
2022-11-05T19:36:38.091Z,12.90
2022-11-05T19:39:08.758Z,12.50
2022-11-05T19:41:35.929Z,12.50
2022-11-05T19:44:03.398Z,12.40
2022-11-05T19:46:31.124Z,12.30
2022-11-05T19:48:59.258Z,13.10
2022-11-05T19:51:27.819Z,12.20
2022-11-05T19:53:55.738Z,12.30
2022-11-05T19:56:24.894Z,12.70
2022-11-05T19:58:53.194Z,12.60
2022-11-05T20:01:22.483Z,13.00
2022-11-05T20:03:49.923Z,12.10
2022-11-05T20:06:23.326Z,12.40
2022-11-05T20:11:40.029Z,12.50
2022-11-05T20:14:09.358Z,12.40
2022-11-05T20:16:40.662Z,12.80
2022-11-05T20:19:13.292Z,13.00
2022-11-05T20:21:42.740Z,12.80
2022-11-05T20:24:11.832Z,12.90
2022-11-05T20:26:38.679Z,12.30
2022-11-05T20:29:06.136Z,13.20
2022-11-05T20:31:32.889Z,12.70
2022-11-05T20:33:59.643Z,12.90
2022-11-05T20:36:26.740Z,12.80
2022-11-05T20:39:02.885Z,12.50
2022-11-05T20:41:30.708Z,12.70
2022-11-05T20:43:57.692Z,12.40
2022-11-05T20:46:24.738Z,12.50
2022-11-05T20:48:51.942Z,13.00
2022-11-05T20:51:20.977Z,13.00
2022-11-05T20:53:48.826Z,12.40
2022-11-05T20:56:20.430Z,13.00
2022-11-05T20:58:47.463Z,13.10
2022-11-05T21:01:16.571Z,12.60
2022-11-05T21:03:44.898Z,12.40
2022-11-05T21:06:12.540Z,13.60
2022-11-05T21:08:39.964Z,13.30
2022-11-05T21:11:07.414Z,12.30
2022-11-05T21:13:34.676Z,12.40
2022-11-05T21:16:02.440Z,12.50
2022-11-05T21:18:32.241Z,12.30
2022-11-05T21:21:00.456Z,13.00
2022-11-05T21:23:28.846Z,12.70
2022-11-05T21:25:55.756Z,13.00
2022-11-05T21:28:22.805Z,13.00
2022-11-05T21:30:49.842Z,12.20
2022-11-05T21:33:18.390Z,12.40
2022-11-05T21:35:49.054Z,12.70
2022-11-05T21:38:17.352Z,12.10
2022-11-05T21:40:45.040Z,12.60
2022-11-05T21:43:12.831Z,13.00
2022-11-05T21:45:44.316Z,12.50
2022-11-05T21:48:11.865Z,12.40
2022-11-05T21:50:57.926Z,12.10
2022-11-05T21:53:43.417Z,12.50
2022-11-05T21:56:47.178Z,13.30
2022-11-05T21:59:35.345Z,12.70
2022-11-05T22:02:03.123Z,13.10
2022-11-05T22:04:32.622Z,12.90
2022-11-05T22:06:59.467Z,13.00
2022-11-05T22:09:27.277Z,12.70
2022-11-05T22:11:54.711Z,12.20
2022-11-05T22:14:21.783Z,13.00
2022-11-05T22:16:48.529Z,12.90
2022-11-05T22:19:15.271Z,13.60
2022-11-05T22:21:42.212Z,13.60
2022-11-05T22:24:09.318Z,13.90
2022-11-05T22:26:36.986Z,13.50
2022-11-05T22:29:04.995Z,12.80
2022-11-05T22:31:35.986Z,13.70
2022-11-05T22:34:11.744Z,13.10
2022-11-05T22:36:38.688Z,12.70
2022-11-05T22:39:06.286Z,13.10
2022-11-05T22:41:33.020Z,13.70
2022-11-05T22:43:59.726Z,13.70
2022-11-05T22:46:27.184Z,13.20
2022-11-05T22:48:54.178Z,12.60
2022-11-05T22:51:26.194Z,13.00
2022-11-05T22:53:54.698Z,13.10
2022-11-05T22:56:24.125Z,13.70
2022-11-05T22:58:57.040Z,12.60
2022-11-05T23:01:24.442Z,13.80
2022-11-05T23:03:53.212Z,14.10
2022-11-05T23:06:41.700Z,13.50
2022-11-05T23:09:34.442Z,13.40
2022-11-05T23:12:01.916Z,13.20
2022-11-05T23:14:29.117Z,14.00
2022-11-05T23:17:14.249Z,13.10
2022-11-05T23:20:00.411Z,14.30
2022-11-05T23:22:49.076Z,13.70
2022-11-05T23:25:19.924Z,14.30
2022-11-05T23:27:50.113Z,13.30
2022-11-05T23:30:20.300Z,14.00
2022-11-05T23:32:47.611Z,13.60
2022-11-05T23:35:14.797Z,12.90
2022-11-05T23:37:59.993Z,12.70
2022-11-05T23:40:29.753Z,13.50
2022-11-05T23:43:16.158Z,13.00
2022-11-05T23:45:59.013Z,12.60
2022-11-05T23:48:31.129Z,13.40
2022-11-05T23:51:04.140Z,12.70
2022-11-05T23:53:43.054Z,12.90
2022-11-05T23:56:15.297Z,14.00
2022-11-05T23:58:42.838Z,14.10
